sensor_id;sensor_type;location;lat;lon;timestamp;P1;durP1;ratioP1;P2;durP2;ratioP2
4430;SDS011;2228;48.140;11.488;2023-04-08T00:00:26;27.65;;;16.17;;
4430;SDS011;2228;48.140;11.488;2023-04-08T00:02:53;27.80;;;16.75;;
4430;SDS011;2228;48.140;11.488;2023-04-08T00:05:20;25.20;;;15.38;;
4430;SDS011;2228;48.140;11.488;2023-04-08T00:07:49;23.65;;;15.80;;
4430;SDS011;2228;48.140;11.488;2023-04-08T00:10:16;25.35;;;15.80;;
4430;SDS011;2228;48.140;11.488;2023-04-08T00:12:43;25.63;;;15.23;;
4430;SDS011;2228;48.140;11.488;2023-04-08T00:15:10;24.20;;;15.45;;
4430;SDS011;2228;48.140;11.488;2023-04-08T00:17:38;26.00;;;15.77;;
4430;SDS011;2228;48.140;11.488;2023-04-08T00:20:06;24.47;;;15.40;;
4430;SDS011;2228;48.140;11.488;2023-04-08T00:22:33;25.17;;;15.18;;
4430;SDS011;2228;48.140;11.488;2023-04-08T00:25:05;21.88;;;14.32;;
4430;SDS011;2228;48.140;11.488;2023-04-08T00:27:34;22.55;;;14.15;;
4430;SDS011;2228;48.140;11.488;2023-04-08T00:30:01;19.60;;;12.32;;
4430;SDS011;2228;48.140;11.488;2023-04-08T00:32:28;21.17;;;13.65;;
4430;SDS011;2228;48.140;11.488;2023-04-08T00:34:55;18.17;;;11.88;;
4430;SDS011;2228;48.140;11.488;2023-04-08T00:37:22;19.33;;;12.02;;
4430;SDS011;2228;48.140;11.488;2023-04-08T00:40:00;20.48;;;13.43;;
4430;SDS011;2228;48.140;11.488;2023-04-08T00:42:28;19.35;;;11.73;;
4430;SDS011;2228;48.140;11.488;2023-04-08T00:44:56;18.10;;;11.30;;
4430;SDS011;2228;48.140;11.488;2023-04-08T00:47:26;17.20;;;11.60;;
4430;SDS011;2228;48.140;11.488;2023-04-08T00:49:53;18.05;;;11.95;;
4430;SDS011;2228;48.140;11.488;2023-04-08T00:52:20;18.23;;;13.02;;
4430;SDS011;2228;48.140;11.488;2023-04-08T00:54:47;21.70;;;14.20;;
4430;SDS011;2228;48.140;11.488;2023-04-08T00:57:14;27.15;;;14.68;;
4430;SDS011;2228;48.140;11.488;2023-04-08T00:59:43;24.38;;;14.82;;
4430;SDS011;2228;48.140;11.488;2023-04-08T01:02:11;20.35;;;13.38;;
4430;SDS011;2228;48.140;11.488;2023-04-08T01:04:43;24.75;;;14.65;;
4430;SDS011;2228;48.140;11.488;2023-04-08T01:07:19;25.42;;;15.35;;
4430;SDS011;2228;48.140;11.488;2023-04-08T01:09:51;26.08;;;16.00;;
4430;SDS011;2228;48.140;11.488;2023-04-08T01:12:26;26.33;;;16.33;;
4430;SDS011;2228;48.140;11.488;2023-04-08T01:15:02;33.67;;;16.98;;
4430;SDS011;2228;48.140;11.488;2023-04-08T01:17:32;25.20;;;15.95;;
4430;SDS011;2228;48.140;11.488;2023-04-08T01:20:00;23.40;;;13.87;;
4430;SDS011;2228;48.140;11.488;2023-04-08T07:09:08;22.75;;;16.35;;
4430;SDS011;2228;48.140;11.488;2023-04-08T07:11:36;22.90;;;16.45;;
4430;SDS011;2228;48.140;11.488;2023-04-08T07:14:03;26.05;;;17.00;;
4430;SDS011;2228;48.140;11.488;2023-04-08T07:16:30;23.30;;;15.43;;
4430;SDS011;2228;48.140;11.488;2023-04-08T07:18:57;26.65;;;17.80;;
4430;SDS011;2228;48.140;11.488;2023-04-08T08:31:45;19.48;;;13.82;;
4430;SDS011;2228;48.140;11.488;2023-04-08T08:34:12;20.55;;;14.35;;
4430;SDS011;2228;48.140;11.488;2023-04-08T08:36:39;20.48;;;13.60;;
4430;SDS011;2228;48.140;11.488;2023-04-08T08:39:06;19.90;;;13.30;;
4430;SDS011;2228;48.140;11.488;2023-04-08T08:41:33;21.27;;;13.00;;
4430;SDS011;2228;48.140;11.488;2023-04-08T08:44:04;19.73;;;13.75;;
4430;SDS011;2228;48.140;11.488;2023-04-08T08:46:33;24.80;;;13.18;;
4430;SDS011;2228;48.140;11.488;2023-04-08T08:49:00;23.40;;;14.60;;
4430;SDS011;2228;48.140;11.488;2023-04-08T08:51:30;20.38;;;14.18;;
4430;SDS011;2228;48.140;11.488;2023-04-08T08:54:00;17.85;;;13.40;;
4430;SDS011;2228;48.140;11.488;2023-04-08T08:56:28;20.90;;;13.88;;
4430;SDS011;2228;48.140;11.488;2023-04-08T08:58:55;20.65;;;15.20;;
4430;SDS011;2228;48.140;11.488;2023-04-08T09:01:36;24.35;;;14.82;;
4430;SDS011;2228;48.140;11.488;2023-04-08T09:04:05;22.30;;;14.63;;
4430;SDS011;2228;48.140;11.488;2023-04-08T09:06:38;21.25;;;14.40;;
4430;SDS011;2228;48.140;11.488;2023-04-08T09:09:05;19.00;;;13.77;;
4430;SDS011;2228;48.140;11.488;2023-04-08T09:11:35;23.33;;;13.57;;
4430;SDS011;2228;48.140;11.488;2023-04-08T09:14:03;19.58;;;13.68;;
4430;SDS011;2228;48.140;11.488;2023-04-08T09:16:31;23.02;;;14.88;;
4430;SDS011;2228;48.140;11.488;2023-04-08T09:19:09;22.73;;;14.63;;
4430;SDS011;2228;48.140;11.488;2023-04-08T09:21:37;22.43;;;13.90;;
4430;SDS011;2228;48.140;11.488;2023-04-08T09:24:05;20.58;;;13.18;;
4430;SDS011;2228;48.140;11.488;2023-04-08T09:26:33;21.63;;;13.68;;
4430;SDS011;2228;48.140;11.488;2023-04-08T09:29:02;20.52;;;14.07;;
4430;SDS011;2228;48.140;11.488;2023-04-08T09:31:31;27.33;;;15.25;;
4430;SDS011;2228;48.140;11.488;2023-04-08T09:34:00;24.73;;;14.80;;
4430;SDS011;2228;48.140;11.488;2023-04-08T09:36:37;25.95;;;15.35;;
4430;SDS011;2228;48.140;11.488;2023-04-08T09:39:13;22.20;;;14.70;;
4430;SDS011;2228;48.140;11.488;2023-04-08T09:41:40;24.03;;;14.47;;
4430;SDS011;2228;48.140;11.488;2023-04-08T09:44:08;19.98;;;13.65;;
4430;SDS011;2228;48.140;11.488;2023-04-08T09:46:38;22.70;;;13.90;;
4430;SDS011;2228;48.140;11.488;2023-04-08T09:49:11;22.52;;;14.30;;
4430;SDS011;2228;48.140;11.488;2023-04-08T09:51:43;26.45;;;15.95;;
4430;SDS011;2228;48.140;11.488;2023-04-08T09:54:19;22.15;;;14.55;;
4430;SDS011;2228;48.140;11.488;2023-04-08T09:56:48;19.80;;;13.90;;
4430;SDS011;2228;48.140;11.488;2023-04-08T09:59:20;20.20;;;14.13;;
4430;SDS011;2228;48.140;11.488;2023-04-08T10:01:52;22.57;;;13.87;;
4430;SDS011;2228;48.140;11.488;2023-04-08T10:04:23;21.25;;;14.30;;
4430;SDS011;2228;48.140;11.488;2023-04-08T10:07:06;19.52;;;13.20;;
4430;SDS011;2228;48.140;11.488;2023-04-08T10:09:34;21.33;;;13.48;;
4430;SDS011;2228;48.140;11.488;2023-04-08T10:12:03;19.17;;;13.00;;
4430;SDS011;2228;48.140;11.488;2023-04-08T10:14:30;21.92;;;13.50;;
4430;SDS011;2228;48.140;11.488;2023-04-08T10:19:53;19.95;;;13.10;;
4430;SDS011;2228;48.140;11.488;2023-04-08T10:25:28;21.30;;;13.73;;
4430;SDS011;2228;48.140;11.488;2023-04-08T10:27:56;20.75;;;13.82;;
4430;SDS011;2228;48.140;11.488;2023-04-08T10:30:37;18.77;;;13.07;;
4430;SDS011;2228;48.140;11.488;2023-04-08T10:33:08;18.38;;;14.30;;
4430;SDS011;2228;48.140;11.488;2023-04-08T10:35:39;18.75;;;13.75;;
4430;SDS011;2228;48.140;11.488;2023-04-08T10:38:07;19.75;;;14.57;;
4430;SDS011;2228;48.140;11.488;2023-04-08T10:40:36;19.52;;;13.90;;
4430;SDS011;2228;48.140;11.488;2023-04-08T10:43:05;21.63;;;15.07;;
4430;SDS011;2228;48.140;11.488;2023-04-08T10:45:32;22.10;;;14.75;;
4430;SDS011;2228;48.140;11.488;2023-04-08T10:48:10;20.23;;;13.70;;
4430;SDS011;2228;48.140;11.488;2023-04-08T10:50:43;21.15;;;13.82;;
4430;SDS011;2228;48.140;11.488;2023-04-08T10:53:17;20.65;;;14.48;;
4430;SDS011;2228;48.140;11.488;2023-04-08T10:55:43;19.83;;;13.50;;
4430;SDS011;2228;48.140;11.488;2023-04-08T10:58:10;21.50;;;15.45;;
4430;SDS011;2228;48.140;11.488;2023-04-08T11:00:38;26.83;;;16.70;;
4430;SDS011;2228;48.140;11.488;2023-04-08T11:03:07;27.45;;;16.80;;
4430;SDS011;2228;48.140;11.488;2023-04-08T11:05:35;24.73;;;17.02;;
4430;SDS011;2228;48.140;11.488;2023-04-08T11:08:04;26.73;;;16.90;;
4430;SDS011;2228;48.140;11.488;2023-04-08T11:10:33;29.27;;;17.80;;
4430;SDS011;2228;48.140;11.488;2023-04-08T11:13:04;31.85;;;18.63;;
4430;SDS011;2228;48.140;11.488;2023-04-08T11:15:32;28.77;;;17.60;;
4430;SDS011;2228;48.140;11.488;2023-04-08T11:18:01;32.40;;;20.17;;
4430;SDS011;2228;48.140;11.488;2023-04-08T11:20:28;26.80;;;16.80;;
4430;SDS011;2228;48.140;11.488;2023-04-08T11:22:55;27.15;;;17.73;;
4430;SDS011;2228;48.140;11.488;2023-04-08T11:25:24;25.35;;;16.30;;
4430;SDS011;2228;48.140;11.488;2023-04-08T11:27:51;23.73;;;17.20;;
4430;SDS011;2228;48.140;11.488;2023-04-08T11:30:18;24.42;;;17.08;;
4430;SDS011;2228;48.140;11.488;2023-04-08T11:32:46;24.08;;;16.83;;
4430;SDS011;2228;48.140;11.488;2023-04-08T11:35:15;23.37;;;16.73;;
4430;SDS011;2228;48.140;11.488;2023-04-08T11:37:42;27.63;;;16.98;;
4430;SDS011;2228;48.140;11.488;2023-04-08T11:40:11;22.33;;;16.40;;
4430;SDS011;2228;48.140;11.488;2023-04-08T11:42:40;23.90;;;16.20;;
4430;SDS011;2228;48.140;11.488;2023-04-08T11:45:10;23.13;;;15.47;;
4430;SDS011;2228;48.140;11.488;2023-04-08T11:47:38;20.50;;;14.80;;
4430;SDS011;2228;48.140;11.488;2023-04-08T11:50:06;24.80;;;15.80;;
4430;SDS011;2228;48.140;11.488;2023-04-08T11:52:43;20.30;;;15.60;;
4430;SDS011;2228;48.140;11.488;2023-04-08T11:55:12;22.33;;;14.85;;
4430;SDS011;2228;48.140;11.488;2023-04-08T11:57:49;22.40;;;15.47;;
4430;SDS011;2228;48.140;11.488;2023-04-08T12:00:17;22.27;;;15.60;;
4430;SDS011;2228;48.140;11.488;2023-04-08T12:02:44;22.90;;;15.95;;
4430;SDS011;2228;48.140;11.488;2023-04-08T12:05:12;21.93;;;15.63;;
4430;SDS011;2228;48.140;11.488;2023-04-08T12:07:40;23.83;;;16.73;;
4430;SDS011;2228;48.140;11.488;2023-04-08T12:10:07;23.60;;;16.42;;
4430;SDS011;2228;48.140;11.488;2023-04-08T12:12:34;24.90;;;16.45;;
4430;SDS011;2228;48.140;11.488;2023-04-08T12:15:03;23.58;;;16.15;;
4430;SDS011;2228;48.140;11.488;2023-04-08T12:17:30;24.33;;;17.17;;
4430;SDS011;2228;48.140;11.488;2023-04-08T12:19:57;24.20;;;16.20;;
4430;SDS011;2228;48.140;11.488;2023-04-08T12:22:24;23.00;;;16.85;;
4430;SDS011;2228;48.140;11.488;2023-04-08T12:24:51;24.40;;;16.48;;
4430;SDS011;2228;48.140;11.488;2023-04-08T12:27:18;22.67;;;14.98;;
4430;SDS011;2228;48.140;11.488;2023-04-08T12:29:45;20.17;;;14.98;;
4430;SDS011;2228;48.140;11.488;2023-04-08T12:32:15;22.50;;;16.10;;
4430;SDS011;2228;48.140;11.488;2023-04-08T12:34:42;21.67;;;15.95;;
4430;SDS011;2228;48.140;11.488;2023-04-08T12:37:09;22.48;;;14.70;;
4430;SDS011;2228;48.140;11.488;2023-04-08T12:39:36;19.83;;;13.85;;
4430;SDS011;2228;48.140;11.488;2023-04-08T12:42:03;20.20;;;14.32;;
4430;SDS011;2228;48.140;11.488;2023-04-08T12:44:30;19.27;;;14.30;;
4430;SDS011;2228;48.140;11.488;2023-04-08T12:46:57;24.30;;;14.20;;
4430;SDS011;2228;48.140;11.488;2023-04-08T12:49:25;19.13;;;13.37;;
4430;SDS011;2228;48.140;11.488;2023-04-08T12:51:53;19.55;;;13.80;;
4430;SDS011;2228;48.140;11.488;2023-04-08T12:54:19;20.05;;;13.73;;
4430;SDS011;2228;48.140;11.488;2023-04-08T12:56:46;20.10;;;12.65;;
4430;SDS011;2228;48.140;11.488;2023-04-08T12:59:13;15.88;;;12.90;;
4430;SDS011;2228;48.140;11.488;2023-04-08T13:01:41;19.00;;;13.95;;
4430;SDS011;2228;48.140;11.488;2023-04-08T13:04:08;17.52;;;13.07;;
4430;SDS011;2228;48.140;11.488;2023-04-08T13:06:36;18.73;;;12.88;;
4430;SDS011;2228;48.140;11.488;2023-04-08T13:09:03;19.45;;;13.00;;
4430;SDS011;2228;48.140;11.488;2023-04-08T13:11:30;17.60;;;12.10;;
4430;SDS011;2228;48.140;11.488;2023-04-08T13:13:58;17.80;;;12.10;;
4430;SDS011;2228;48.140;11.488;2023-04-08T13:16:25;18.53;;;12.37;;
4430;SDS011;2228;48.140;11.488;2023-04-08T13:18:52;17.70;;;12.15;;
4430;SDS011;2228;48.140;11.488;2023-04-08T13:21:19;19.55;;;13.55;;
4430;SDS011;2228;48.140;11.488;2023-04-08T13:23:47;18.70;;;13.00;;
4430;SDS011;2228;48.140;11.488;2023-04-08T13:26:14;19.48;;;13.38;;
4430;SDS011;2228;48.140;11.488;2023-04-08T13:28:41;20.95;;;14.00;;
4430;SDS011;2228;48.140;11.488;2023-04-08T13:31:08;20.03;;;13.70;;
4430;SDS011;2228;48.140;11.488;2023-04-08T13:33:35;21.40;;;14.67;;
4430;SDS011;2228;48.140;11.488;2023-04-08T13:36:05;21.13;;;14.07;;
4430;SDS011;2228;48.140;11.488;2023-04-08T13:38:32;25.38;;;14.65;;
4430;SDS011;2228;48.140;11.488;2023-04-08T13:41:02;19.17;;;13.63;;
4430;SDS011;2228;48.140;11.488;2023-04-08T13:43:29;20.95;;;14.93;;
4430;SDS011;2228;48.140;11.488;2023-04-08T13:45:56;20.73;;;14.02;;
4430;SDS011;2228;48.140;11.488;2023-04-08T13:48:23;21.92;;;15.40;;
4430;SDS011;2228;48.140;11.488;2023-04-08T13:50:50;20.40;;;14.68;;
4430;SDS011;2228;48.140;11.488;2023-04-08T13:53:18;19.55;;;14.00;;
4430;SDS011;2228;48.140;11.488;2023-04-08T13:55:45;19.90;;;14.65;;
4430;SDS011;2228;48.140;11.488;2023-04-08T13:58:14;22.13;;;14.85;;
4430;SDS011;2228;48.140;11.488;2023-04-08T14:00:41;20.77;;;14.63;;
4430;SDS011;2228;48.140;11.488;2023-04-08T14:03:08;18.23;;;13.52;;
4430;SDS011;2228;48.140;11.488;2023-04-08T14:05:35;18.90;;;14.38;;
4430;SDS011;2228;48.140;11.488;2023-04-08T14:08:02;20.25;;;15.07;;
4430;SDS011;2228;48.140;11.488;2023-04-08T14:10:29;20.83;;;14.63;;
4430;SDS011;2228;48.140;11.488;2023-04-08T14:12:56;17.75;;;13.20;;
4430;SDS011;2228;48.140;11.488;2023-04-08T14:15:24;18.43;;;13.57;;
4430;SDS011;2228;48.140;11.488;2023-04-08T14:17:51;23.20;;;15.30;;
4430;SDS011;2228;48.140;11.488;2023-04-08T14:20:19;17.58;;;13.10;;
4430;SDS011;2228;48.140;11.488;2023-04-08T14:22:46;18.67;;;13.23;;
4430;SDS011;2228;48.140;11.488;2023-04-08T14:25:14;16.90;;;12.43;;
4430;SDS011;2228;48.140;11.488;2023-04-08T14:27:41;16.92;;;12.30;;
4430;SDS011;2228;48.140;11.488;2023-04-08T14:30:09;15.77;;;12.20;;
4430;SDS011;2228;48.140;11.488;2023-04-08T14:32:38;17.45;;;12.55;;
4430;SDS011;2228;48.140;11.488;2023-04-08T14:35:05;15.68;;;11.80;;
4430;SDS011;2228;48.140;11.488;2023-04-08T14:37:32;15.57;;;11.50;;
4430;SDS011;2228;48.140;11.488;2023-04-08T14:40:02;17.08;;;12.00;;
4430;SDS011;2228;48.140;11.488;2023-04-08T14:42:30;16.98;;;11.82;;
4430;SDS011;2228;48.140;11.488;2023-04-08T14:44:56;16.93;;;12.53;;
4430;SDS011;2228;48.140;11.488;2023-04-08T14:47:23;16.92;;;11.50;;
4430;SDS011;2228;48.140;11.488;2023-04-08T14:49:52;15.73;;;11.00;;
4430;SDS011;2228;48.140;11.488;2023-04-08T14:52:19;16.23;;;11.75;;
4430;SDS011;2228;48.140;11.488;2023-04-08T14:54:47;16.10;;;11.80;;
4430;SDS011;2228;48.140;11.488;2023-04-08T14:57:14;18.90;;;12.95;;
4430;SDS011;2228;48.140;11.488;2023-04-08T14:59:44;14.88;;;11.20;;
4430;SDS011;2228;48.140;11.488;2023-04-08T15:02:11;14.60;;;11.55;;
4430;SDS011;2228;48.140;11.488;2023-04-08T15:04:38;19.90;;;13.05;;
4430;SDS011;2228;48.140;11.488;2023-04-08T15:07:07;18.05;;;12.52;;
4430;SDS011;2228;48.140;11.488;2023-04-08T15:09:34;17.55;;;13.05;;
4430;SDS011;2228;48.140;11.488;2023-04-08T15:12:01;19.42;;;13.23;;
4430;SDS011;2228;48.140;11.488;2023-04-08T15:14:29;15.75;;;11.93;;
4430;SDS011;2228;48.140;11.488;2023-04-08T15:16:56;17.88;;;12.80;;
4430;SDS011;2228;48.140;11.488;2023-04-08T15:19:23;21.58;;;13.30;;
4430;SDS011;2228;48.140;11.488;2023-04-08T15:21:50;17.20;;;13.00;;
4430;SDS011;2228;48.140;11.488;2023-04-08T15:24:19;17.87;;;13.03;;
4430;SDS011;2228;48.140;11.488;2023-04-08T15:26:46;18.27;;;13.27;;
4430;SDS011;2228;48.140;11.488;2023-04-08T15:29:13;16.98;;;12.23;;
4430;SDS011;2228;48.140;11.488;2023-04-08T15:31:41;14.77;;;11.63;;
4430;SDS011;2228;48.140;11.488;2023-04-08T15:34:08;16.50;;;12.20;;
4430;SDS011;2228;48.140;11.488;2023-04-08T15:36:35;18.50;;;12.57;;
4430;SDS011;2228;48.140;11.488;2023-04-08T15:39:02;17.38;;;12.60;;
4430;SDS011;2228;48.140;11.488;2023-04-08T15:41:30;17.55;;;12.95;;
4430;SDS011;2228;48.140;11.488;2023-04-08T15:43:57;18.70;;;13.90;;
4430;SDS011;2228;48.140;11.488;2023-04-08T15:46:24;18.92;;;13.90;;
4430;SDS011;2228;48.140;11.488;2023-04-08T15:48:53;20.52;;;14.13;;
4430;SDS011;2228;48.140;11.488;2023-04-08T15:51:20;19.02;;;13.73;;
4430;SDS011;2228;48.140;11.488;2023-04-08T15:53:47;19.50;;;14.10;;
4430;SDS011;2228;48.140;11.488;2023-04-08T15:56:15;20.80;;;14.23;;
4430;SDS011;2228;48.140;11.488;2023-04-08T15:58:44;18.58;;;13.70;;
4430;SDS011;2228;48.140;11.488;2023-04-08T16:01:14;18.92;;;14.80;;
4430;SDS011;2228;48.140;11.488;2023-04-08T16:03:42;21.92;;;16.08;;
4430;SDS011;2228;48.140;11.488;2023-04-08T16:06:09;23.90;;;16.17;;
4430;SDS011;2228;48.140;11.488;2023-04-08T16:08:36;21.45;;;15.70;;
4430;SDS011;2228;48.140;11.488;2023-04-08T16:11:04;21.33;;;16.02;;
4430;SDS011;2228;48.140;11.488;2023-04-08T16:13:33;24.60;;;17.35;;
4430;SDS011;2228;48.140;11.488;2023-04-08T16:16:04;23.58;;;16.30;;
4430;SDS011;2228;48.140;11.488;2023-04-08T16:18:33;24.60;;;17.83;;
4430;SDS011;2228;48.140;11.488;2023-04-08T16:21:02;26.40;;;18.25;;
4430;SDS011;2228;48.140;11.488;2023-04-08T16:23:29;27.33;;;17.75;;
4430;SDS011;2228;48.140;11.488;2023-04-08T16:25:58;27.90;;;18.23;;
4430;SDS011;2228;48.140;11.488;2023-04-08T16:28:25;30.37;;;18.23;;
4430;SDS011;2228;48.140;11.488;2023-04-08T16:30:52;27.30;;;17.70;;
4430;SDS011;2228;48.140;11.488;2023-04-08T16:33:20;23.95;;;16.45;;
4430;SDS011;2228;48.140;11.488;2023-04-08T16:35:54;25.63;;;17.50;;
4430;SDS011;2228;48.140;11.488;2023-04-08T16:38:21;27.40;;;18.33;;
4430;SDS011;2228;48.140;11.488;2023-04-08T16:40:48;26.27;;;17.27;;
4430;SDS011;2228;48.140;11.488;2023-04-08T16:43:14;28.08;;;18.50;;
4430;SDS011;2228;48.140;11.488;2023-04-08T16:45:41;24.40;;;17.05;;
4430;SDS011;2228;48.140;11.488;2023-04-08T16:48:09;36.70;;;20.20;;
4430;SDS011;2228;48.140;11.488;2023-04-08T16:50:38;23.75;;;16.77;;
4430;SDS011;2228;48.140;11.488;2023-04-08T16:53:05;28.83;;;19.07;;
4430;SDS011;2228;48.140;11.488;2023-04-08T16:55:32;29.58;;;19.27;;
4430;SDS011;2228;48.140;11.488;2023-04-08T16:57:59;31.55;;;18.35;;
4430;SDS011;2228;48.140;11.488;2023-04-08T17:00:26;28.65;;;18.88;;
4430;SDS011;2228;48.140;11.488;2023-04-08T17:02:53;28.48;;;18.50;;
4430;SDS011;2228;48.140;11.488;2023-04-08T17:05:21;29.83;;;19.10;;
4430;SDS011;2228;48.140;11.488;2023-04-08T17:07:49;28.73;;;18.23;;
4430;SDS011;2228;48.140;11.488;2023-04-08T17:10:16;29.33;;;20.15;;
4430;SDS011;2228;48.140;11.488;2023-04-08T17:12:44;30.35;;;20.23;;
4430;SDS011;2228;48.140;11.488;2023-04-08T17:15:11;33.50;;;22.13;;
4430;SDS011;2228;48.140;11.488;2023-04-08T17:17:37;33.90;;;22.10;;
4430;SDS011;2228;48.140;11.488;2023-04-08T17:20:05;30.95;;;20.45;;
4430;SDS011;2228;48.140;11.488;2023-04-08T17:22:33;30.90;;;19.63;;
4430;SDS011;2228;48.140;11.488;2023-04-08T17:25:02;28.87;;;20.13;;
4430;SDS011;2228;48.140;11.488;2023-04-08T17:27:30;28.83;;;20.23;;
4430;SDS011;2228;48.140;11.488;2023-04-08T17:29:57;34.80;;;24.20;;
4430;SDS011;2228;48.140;11.488;2023-04-08T17:32:24;31.70;;;21.83;;
4430;SDS011;2228;48.140;11.488;2023-04-08T17:34:52;31.00;;;21.15;;
4430;SDS011;2228;48.140;11.488;2023-04-08T17:37:19;39.95;;;21.98;;
4430;SDS011;2228;48.140;11.488;2023-04-08T17:39:47;29.75;;;20.27;;
4430;SDS011;2228;48.140;11.488;2023-04-08T17:42:17;27.75;;;19.33;;
4430;SDS011;2228;48.140;11.488;2023-04-08T17:44:47;27.70;;;20.42;;
4430;SDS011;2228;48.140;11.488;2023-04-08T17:47:15;28.30;;;18.90;;
4430;SDS011;2228;48.140;11.488;2023-04-08T17:49:42;30.13;;;19.65;;
4430;SDS011;2228;48.140;11.488;2023-04-08T17:52:09;28.50;;;18.90;;
4430;SDS011;2228;48.140;11.488;2023-04-08T17:54:36;31.23;;;19.65;;
4430;SDS011;2228;48.140;11.488;2023-04-08T17:57:05;32.55;;;20.83;;
4430;SDS011;2228;48.140;11.488;2023-04-08T17:59:34;32.63;;;20.08;;
4430;SDS011;2228;48.140;11.488;2023-04-08T18:02:01;30.98;;;20.20;;
4430;SDS011;2228;48.140;11.488;2023-04-08T18:04:29;28.83;;;20.25;;
4430;SDS011;2228;48.140;11.488;2023-04-08T18:06:56;31.70;;;20.17;;
4430;SDS011;2228;48.140;11.488;2023-04-08T18:09:23;29.83;;;20.75;;
4430;SDS011;2228;48.140;11.488;2023-04-08T18:11:50;32.90;;;20.80;;
4430;SDS011;2228;48.140;11.488;2023-04-08T18:14:18;31.77;;;21.03;;
4430;SDS011;2228;48.140;11.488;2023-04-08T18:16:48;33.53;;;21.80;;
4430;SDS011;2228;48.140;11.488;2023-04-08T18:19:16;34.22;;;23.33;;
4430;SDS011;2228;48.140;11.488;2023-04-08T18:21:43;36.35;;;23.95;;
4430;SDS011;2228;48.140;11.488;2023-04-08T18:24:10;31.10;;;20.63;;
4430;SDS011;2228;48.140;11.488;2023-04-08T18:26:37;35.27;;;22.23;;
4430;SDS011;2228;48.140;11.488;2023-04-08T18:29:04;39.58;;;22.27;;
4430;SDS011;2228;48.140;11.488;2023-04-08T18:31:32;38.58;;;22.05;;
4430;SDS011;2228;48.140;11.488;2023-04-08T18:34:00;33.07;;;22.23;;
4430;SDS011;2228;48.140;11.488;2023-04-08T18:36:29;33.53;;;24.02;;
4430;SDS011;2228;48.140;11.488;2023-04-08T18:38:57;35.93;;;22.40;;
4430;SDS011;2228;48.140;11.488;2023-04-08T18:41:26;32.75;;;20.73;;
4430;SDS011;2228;48.140;11.488;2023-04-08T18:43:53;35.63;;;22.10;;
4430;SDS011;2228;48.140;11.488;2023-04-08T18:46:22;35.20;;;21.83;;
4430;SDS011;2228;48.140;11.488;2023-04-08T18:48:49;31.88;;;20.48;;
4430;SDS011;2228;48.140;11.488;2023-04-08T18:51:17;35.33;;;22.65;;
4430;SDS011;2228;48.140;11.488;2023-04-08T18:53:44;32.42;;;21.08;;
4430;SDS011;2228;48.140;11.488;2023-04-08T18:56:13;31.25;;;20.73;;
4430;SDS011;2228;48.140;11.488;2023-04-08T18:58:48;36.13;;;21.13;;
4430;SDS011;2228;48.140;11.488;2023-04-08T19:01:18;37.40;;;21.10;;
4430;SDS011;2228;48.140;11.488;2023-04-08T19:03:46;32.20;;;19.63;;
4430;SDS011;2228;48.140;11.488;2023-04-08T19:06:15;31.70;;;20.35;;
4430;SDS011;2228;48.140;11.488;2023-04-08T19:08:48;27.70;;;18.65;;
4430;SDS011;2228;48.140;11.488;2023-04-08T19:11:15;28.20;;;18.00;;
4430;SDS011;2228;48.140;11.488;2023-04-08T19:13:42;29.88;;;17.92;;
4430;SDS011;2228;48.140;11.488;2023-04-08T19:16:09;28.03;;;18.13;;
4430;SDS011;2228;48.140;11.488;2023-04-08T19:18:36;26.33;;;16.92;;
4430;SDS011;2228;48.140;11.488;2023-04-08T19:21:03;29.60;;;18.08;;
4430;SDS011;2228;48.140;11.488;2023-04-08T19:23:30;30.95;;;19.23;;
4430;SDS011;2228;48.140;11.488;2023-04-08T19:26:02;27.80;;;18.17;;
4430;SDS011;2228;48.140;11.488;2023-04-08T19:28:31;30.80;;;18.52;;
4430;SDS011;2228;48.140;11.488;2023-04-08T19:30:59;26.93;;;17.40;;
4430;SDS011;2228;48.140;11.488;2023-04-08T19:38:53;27.88;;;17.30;;
4430;SDS011;2228;48.140;11.488;2023-04-08T19:41:22;24.35;;;16.92;;
4430;SDS011;2228;48.140;11.488;2023-04-08T19:43:50;27.92;;;18.20;;
4430;SDS011;2228;48.140;11.488;2023-04-08T19:46:18;27.25;;;17.67;;
4430;SDS011;2228;48.140;11.488;2023-04-08T19:48:45;27.95;;;18.38;;
4430;SDS011;2228;48.140;11.488;2023-04-08T19:51:16;30.53;;;18.03;;
4430;SDS011;2228;48.140;11.488;2023-04-08T19:53:47;27.70;;;18.88;;
4430;SDS011;2228;48.140;11.488;2023-04-08T19:56:14;32.90;;;20.65;;
4430;SDS011;2228;48.140;11.488;2023-04-08T19:58:48;36.90;;;21.80;;
4430;SDS011;2228;48.140;11.488;2023-04-08T20:01:16;34.13;;;22.85;;
4430;SDS011;2228;48.140;11.488;2023-04-08T20:03:58;40.40;;;25.45;;
4430;SDS011;2228;48.140;11.488;2023-04-08T20:06:32;43.10;;;25.23;;
4430;SDS011;2228;48.140;11.488;2023-04-08T20:09:10;38.88;;;24.35;;
4430;SDS011;2228;48.140;11.488;2023-04-08T20:11:51;40.25;;;24.48;;
4430;SDS011;2228;48.140;11.488;2023-04-08T20:14:20;43.20;;;25.58;;
4430;SDS011;2228;48.140;11.488;2023-04-08T20:16:47;49.03;;;27.92;;
4430;SDS011;2228;48.140;11.488;2023-04-08T20:19:14;44.10;;;27.05;;
4430;SDS011;2228;48.140;11.488;2023-04-08T20:21:40;50.75;;;29.73;;
4430;SDS011;2228;48.140;11.488;2023-04-08T20:24:08;40.60;;;26.05;;
4430;SDS011;2228;48.140;11.488;2023-04-08T20:26:36;32.65;;;21.77;;
4430;SDS011;2228;48.140;11.488;2023-04-08T20:29:03;35.55;;;21.98;;
4430;SDS011;2228;48.140;11.488;2023-04-08T20:31:32;32.13;;;19.58;;
4430;SDS011;2228;48.140;11.488;2023-04-08T20:33:59;31.00;;;20.02;;
4430;SDS011;2228;48.140;11.488;2023-04-08T20:36:27;30.70;;;20.02;;
4430;SDS011;2228;48.140;11.488;2023-04-08T20:38:55;29.75;;;18.63;;
4430;SDS011;2228;48.140;11.488;2023-04-08T20:41:31;27.27;;;18.77;;
4430;SDS011;2228;48.140;11.488;2023-04-08T20:43:58;28.87;;;19.47;;
4430;SDS011;2228;48.140;11.488;2023-04-08T20:46:27;31.52;;;20.25;;
4430;SDS011;2228;48.140;11.488;2023-04-08T20:48:56;29.80;;;19.73;;
4430;SDS011;2228;48.140;11.488;2023-04-08T20:51:23;30.30;;;19.95;;
4430;SDS011;2228;48.140;11.488;2023-04-08T20:53:51;35.13;;;21.57;;
4430;SDS011;2228;48.140;11.488;2023-04-08T20:56:22;32.70;;;20.92;;
4430;SDS011;2228;48.140;11.488;2023-04-08T20:58:50;31.27;;;20.75;;
4430;SDS011;2228;48.140;11.488;2023-04-08T21:01:17;32.47;;;21.02;;
4430;SDS011;2228;48.140;11.488;2023-04-08T21:03:45;30.60;;;21.60;;
4430;SDS011;2228;48.140;11.488;2023-04-08T21:06:18;32.20;;;21.48;;
4430;SDS011;2228;48.140;11.488;2023-04-08T21:08:45;33.80;;;21.65;;
4430;SDS011;2228;48.140;11.488;2023-04-08T21:11:13;38.55;;;22.27;;
4430;SDS011;2228;48.140;11.488;2023-04-08T21:13:40;31.75;;;21.50;;
4430;SDS011;2228;48.140;11.488;2023-04-08T21:16:08;30.02;;;20.15;;
4430;SDS011;2228;48.140;11.488;2023-04-08T21:18:36;31.60;;;20.23;;
4430;SDS011;2228;48.140;11.488;2023-04-08T21:21:04;33.20;;;21.15;;
4430;SDS011;2228;48.140;11.488;2023-04-08T21:23:32;35.33;;;20.93;;
4430;SDS011;2228;48.140;11.488;2023-04-08T21:25:59;29.33;;;20.38;;
4430;SDS011;2228;48.140;11.488;2023-04-08T21:28:27;27.90;;;19.20;;
4430;SDS011;2228;48.140;11.488;2023-04-08T21:30:53;30.70;;;18.83;;
4430;SDS011;2228;48.140;11.488;2023-04-08T21:33:21;32.47;;;20.05;;
4430;SDS011;2228;48.140;11.488;2023-04-08T21:35:48;29.00;;;18.23;;
4430;SDS011;2228;48.140;11.488;2023-04-08T21:38:15;27.58;;;18.42;;
4430;SDS011;2228;48.140;11.488;2023-04-08T21:40:44;24.17;;;16.73;;
4430;SDS011;2228;48.140;11.488;2023-04-08T21:43:11;25.90;;;16.75;;
4430;SDS011;2228;48.140;11.488;2023-04-08T21:45:38;24.58;;;17.00;;
4430;SDS011;2228;48.140;11.488;2023-04-08T21:48:05;23.55;;;17.08;;